createdAt,value
2018-09-22T00:01:47.520Z,1.50
2018-09-22T00:06:49.649Z,1.03
2018-09-22T00:11:51.844Z,1.30
2018-09-22T00:16:54.058Z,1.13
2018-09-22T00:21:56.249Z,1.37
2018-09-22T00:26:58.378Z,1.60
2018-09-22T00:32:00.580Z,1.30
2018-09-22T00:37:02.736Z,1.10
2018-09-22T00:42:05.469Z,1.43
2018-09-22T00:47:07.626Z,1.30
2018-09-22T00:52:09.795Z,1.50
2018-09-22T00:57:11.912Z,2.07
2018-09-22T01:02:14.093Z,1.93
2018-09-22T01:07:16.219Z,2.23
2018-09-22T01:12:18.391Z,1.97
2018-09-22T01:17:20.526Z,1.93
2018-09-22T01:22:23.218Z,1.60
2018-09-22T01:27:25.318Z,2.30
2018-09-22T01:32:27.463Z,2.15
2018-09-22T01:37:30.263Z,1.80
2018-09-22T01:42:32.411Z,2.20
2018-09-22T01:47:34.542Z,2.90
2018-09-22T01:52:36.811Z,1.80
2018-09-22T01:57:38.856Z,1.83
2018-09-22T02:02:41.005Z,2.10
2018-09-22T02:07:43.117Z,2.30
2018-09-22T02:12:45.253Z,2.10
2018-09-22T02:17:47.426Z,1.57
2018-09-22T02:22:49.567Z,1.80
2018-09-22T02:27:51.689Z,1.60
2018-09-22T02:32:53.817Z,2.33
2018-09-22T02:37:55.951Z,1.60
2018-09-22T02:42:58.095Z,1.90
2018-09-22T02:48:00.227Z,1.93
2018-09-22T02:53:02.400Z,1.60
2018-09-22T02:58:04.523Z,2.10
2018-09-22T03:03:06.685Z,1.80
2018-09-22T03:08:08.857Z,1.97
2018-09-22T03:13:10.993Z,3.33
2018-09-22T03:18:13.197Z,3.00
2018-09-22T03:23:15.323Z,2.93
2018-09-22T03:28:17.468Z,3.20
2018-09-22T03:33:19.592Z,3.40
2018-09-22T03:38:21.723Z,3.00
2018-09-22T03:43:24.148Z,2.90
2018-09-22T03:48:26.270Z,2.53
2018-09-22T03:53:28.547Z,2.00
2018-09-22T03:58:30.719Z,1.67
2018-09-22T04:03:32.833Z,1.57
2018-09-22T04:08:34.965Z,1.20
2018-09-22T04:13:37.084Z,1.33
2018-09-22T04:18:39.291Z,1.33
2018-09-22T04:23:41.407Z,0.90
2018-09-22T04:28:43.521Z,1.50
2018-09-22T04:33:45.636Z,0.93
2018-09-22T04:38:47.783Z,1.30
2018-09-22T04:43:49.966Z,1.25
2018-09-22T04:48:52.098Z,1.07
2018-09-22T04:53:54.247Z,1.20
2018-09-22T04:58:56.643Z,1.20
2018-09-22T05:03:58.752Z,1.70
2018-09-22T05:09:00.881Z,2.43
2018-09-22T05:14:03.037Z,2.00
2018-09-22T05:19:05.411Z,2.57
2018-09-22T05:24:07.524Z,2.80
2018-09-22T05:29:09.672Z,2.57
2018-09-22T05:34:11.857Z,2.70
2018-09-22T05:39:14.018Z,2.77
2018-09-22T05:44:16.140Z,2.10
2018-09-22T05:49:18.318Z,2.60
2018-09-22T05:54:20.503Z,3.10
2018-09-22T05:59:22.665Z,2.40
2018-09-22T06:04:24.803Z,2.13
2018-09-22T06:09:26.954Z,1.83
2018-09-22T06:14:29.098Z,1.60
2018-09-22T06:19:31.262Z,1.93
2018-09-22T06:24:33.407Z,2.27
2018-09-22T06:29:35.523Z,2.03
2018-09-22T06:34:37.663Z,1.77
2018-09-22T06:39:39.818Z,1.97
2018-09-22T06:44:41.976Z,2.20
2018-09-22T06:49:44.092Z,1.80
2018-09-22T06:54:46.247Z,1.50
2018-09-22T06:59:48.371Z,1.80
2018-09-22T07:04:50.540Z,1.40
2018-09-22T07:09:52.650Z,1.50
2018-09-22T07:14:54.822Z,1.80
2018-09-22T07:19:56.998Z,1.50
2018-09-22T07:24:59.191Z,2.00
2018-09-22T07:30:01.319Z,2.23
2018-09-22T07:35:03.555Z,2.17
2018-09-22T07:40:05.742Z,1.90
2018-09-22T07:45:07.919Z,3.10
2018-09-22T07:50:10.104Z,1.67
2018-09-22T07:55:12.265Z,1.83
2018-09-22T08:00:14.469Z,2.22
2018-09-22T08:05:16.616Z,1.83
2018-09-22T08:10:18.774Z,1.90
2018-09-22T08:15:20.938Z,1.40
2018-09-22T08:20:23.190Z,1.57
2018-09-22T08:25:25.373Z,1.97
2018-09-22T08:30:27.459Z,1.57
2018-09-22T08:35:29.614Z,1.60
2018-09-22T08:40:31.727Z,3.57
2018-09-22T08:45:33.947Z,2.03
2018-09-22T08:50:36.111Z,1.47
2018-09-22T08:55:38.299Z,1.37
2018-09-22T09:00:40.520Z,1.20
2018-09-22T09:05:42.654Z,1.10
2018-09-22T09:10:44.822Z,1.43
2018-09-22T09:15:47.006Z,2.07
2018-09-22T09:20:49.291Z,1.43
2018-09-22T09:25:51.395Z,1.87
2018-09-22T09:30:53.586Z,2.10
2018-09-22T09:35:55.742Z,1.33
2018-09-22T09:40:57.864Z,1.00
2018-09-22T09:46:00.034Z,1.20
2018-09-22T09:51:02.315Z,1.37
2018-09-22T09:56:04.457Z,2.00
2018-09-22T10:01:06.611Z,1.33
2018-09-22T10:06:08.750Z,1.43
2018-09-22T10:11:10.880Z,1.63
2018-09-22T10:16:13.057Z,1.57
2018-09-22T10:21:15.247Z,1.33
2018-09-22T10:26:17.775Z,1.20
2018-09-22T10:31:19.948Z,1.40
2018-09-22T10:36:22.096Z,1.20
2018-09-22T10:41:24.252Z,2.10
2018-09-22T10:46:26.393Z,1.20
2018-09-22T10:51:28.576Z,1.57
2018-09-22T10:56:30.726Z,1.67
2018-09-22T11:01:32.887Z,1.73
2018-09-22T11:06:35.064Z,2.10
2018-09-22T11:11:37.382Z,1.57
2018-09-22T11:16:39.660Z,1.33
2018-09-22T11:21:41.858Z,2.07
2018-09-22T11:26:44.067Z,2.07
2018-09-22T11:31:46.278Z,1.90
2018-09-22T11:36:48.450Z,1.90
2018-09-22T11:41:50.643Z,1.77
2018-09-22T11:46:52.815Z,2.37
2018-09-22T11:51:55.019Z,1.27
2018-09-22T11:56:57.196Z,2.07
2018-09-22T12:01:59.392Z,2.00
2018-09-22T12:07:01.570Z,1.53
2018-09-22T12:12:03.860Z,1.93
2018-09-22T12:17:06.037Z,1.83
2018-09-22T12:22:08.198Z,2.33
2018-09-22T12:27:10.390Z,2.60
2018-09-22T12:32:12.566Z,2.13
2018-09-22T12:37:14.728Z,2.17
2018-09-22T12:42:16.887Z,2.20
2018-09-22T12:47:19.061Z,2.23
2018-09-22T12:52:21.215Z,2.47
2018-09-22T12:57:23.388Z,1.87
2018-09-22T13:02:25.556Z,2.03
2018-09-22T13:07:27.730Z,2.33
2018-09-22T13:12:29.881Z,2.30
2018-09-22T13:17:32.036Z,2.10
2018-09-22T13:22:35.572Z,1.87
2018-09-22T13:27:38.394Z,1.83
2018-09-22T13:32:40.599Z,1.77
2018-09-22T13:37:42.816Z,2.33
2018-09-22T13:42:44.974Z,1.53
2018-09-22T13:47:47.168Z,2.13
2018-09-22T13:52:49.295Z,2.00
2018-09-22T13:57:51.459Z,1.57
2018-09-22T14:02:53.640Z,1.50
2018-09-22T14:07:55.820Z,1.73
2018-09-22T14:12:58.001Z,2.60
2018-09-22T14:18:00.164Z,1.60
2018-09-22T14:23:02.358Z,1.93
2018-09-22T14:28:04.546Z,2.13
2018-09-22T14:33:06.761Z,1.93
2018-09-22T14:38:08.915Z,2.13
2018-09-22T14:43:11.081Z,1.60
2018-09-22T14:48:13.336Z,2.20
2018-09-22T14:53:15.519Z,2.03
2018-09-22T14:58:17.752Z,1.90
2018-09-22T15:03:19.943Z,2.60
2018-09-22T15:08:22.143Z,2.17
2018-09-22T15:13:24.323Z,2.17
2018-09-22T15:18:27.027Z,1.80
2018-09-22T15:23:29.336Z,2.13
2018-09-22T15:28:31.542Z,1.70
2018-09-22T15:33:33.709Z,2.20
2018-09-22T15:38:35.885Z,2.33
2018-09-22T15:43:38.035Z,2.60
2018-09-22T15:48:40.308Z,3.00
2018-09-22T15:53:42.352Z,3.07
2018-09-22T15:58:44.521Z,2.73
2018-09-22T16:03:46.713Z,3.13
2018-09-22T16:08:49.145Z,2.40
2018-09-22T16:13:51.291Z,2.90
2018-09-22T16:18:53.458Z,3.07
2018-09-22T16:23:55.679Z,3.33
2018-09-22T16:28:57.904Z,2.23
2018-09-22T16:34:00.349Z,2.50
2018-09-22T16:39:02.778Z,2.47
2018-09-22T16:44:05.005Z,2.73
2018-09-22T16:49:07.260Z,2.43
2018-09-22T16:54:09.392Z,2.50
2018-09-22T16:59:11.571Z,2.60
2018-09-22T17:04:13.755Z,2.70
2018-09-22T17:09:15.975Z,2.67
2018-09-22T17:14:18.162Z,2.37
2018-09-22T17:19:20.336Z,2.03
2018-09-22T17:24:22.554Z,2.53
2018-09-22T17:29:24.744Z,2.63
2018-09-22T17:34:27.874Z,2.43
2018-09-22T17:39:30.053Z,2.37
2018-09-22T17:44:32.235Z,2.20
2018-09-22T17:49:34.438Z,2.27
2018-09-22T17:54:36.630Z,1.97
2018-09-22T17:59:38.914Z,3.07
2018-09-22T18:04:41.128Z,2.13
2018-09-22T18:09:43.434Z,2.67
2018-09-22T18:14:45.727Z,3.27
2018-09-22T18:19:47.957Z,3.27
2018-09-22T18:24:50.260Z,2.57
2018-09-22T18:29:52.919Z,2.83
2018-09-22T18:34:55.111Z,2.60
2018-09-22T18:39:57.331Z,2.47
2018-09-22T18:44:59.733Z,3.10
2018-09-22T18:50:01.997Z,3.50
2018-09-22T18:55:04.639Z,3.07
2018-09-22T19:00:06.959Z,3.33
2018-09-22T19:05:09.243Z,2.90
2018-09-22T19:10:11.619Z,2.27
2018-09-22T19:15:20.972Z,2.70
2018-09-22T19:20:28.340Z,3.30
2018-09-22T19:25:33.262Z,2.97
2018-09-22T19:30:40.399Z,2.53
2018-09-22T19:37:49.975Z,2.60
2018-09-22T19:42:58.205Z,2.70
2018-09-22T19:48:05.421Z,2.60
2018-09-22T19:53:07.852Z,4.00
2018-09-22T19:58:10.262Z,2.50
2018-09-22T20:03:12.532Z,3.50
2018-09-22T20:08:14.830Z,3.57
2018-09-22T20:13:18.216Z,3.03
2018-09-22T20:18:20.702Z,2.27
2018-09-22T20:23:23.001Z,1.57
2018-09-22T20:28:25.335Z,2.50
2018-09-22T20:33:27.696Z,5.57
2018-09-22T20:38:29.863Z,5.60
2018-09-22T20:43:32.131Z,13.43
2018-09-22T20:48:34.375Z,8.00
2018-09-22T20:53:36.620Z,3.87
2018-09-22T20:58:38.814Z,5.13
2018-09-22T21:03:41.093Z,4.93
2018-09-22T21:08:43.399Z,5.10
2018-09-22T21:13:45.677Z,4.70
2018-09-22T21:18:47.882Z,4.97
2018-09-22T21:23:50.062Z,2.07
2018-09-22T21:28:52.336Z,2.80
2018-09-22T21:33:54.565Z,2.13
2018-09-22T21:38:56.790Z,1.70
2018-09-22T21:43:58.950Z,1.83
2018-09-22T21:49:01.142Z,2.17
2018-09-22T21:54:03.659Z,2.30
2018-09-22T21:59:05.830Z,2.90
2018-09-22T22:04:09.121Z,1.73
2018-09-22T22:09:12.583Z,2.20
2018-09-22T22:14:14.754Z,2.50
2018-09-22T22:19:16.945Z,1.90
2018-09-22T22:24:19.125Z,2.17
2018-09-22T22:29:21.330Z,2.50
2018-09-22T22:34:23.490Z,2.60
2018-09-22T22:39:25.649Z,1.80
2018-09-22T22:44:27.843Z,2.53
2018-09-22T22:49:30.030Z,2.80
2018-09-22T22:54:32.186Z,2.40
2018-09-22T22:59:34.398Z,2.20
2018-09-22T23:04:36.775Z,2.00
2018-09-22T23:09:38.983Z,2.03
2018-09-22T23:14:41.137Z,2.40
2018-09-22T23:19:43.330Z,2.57
2018-09-22T23:24:45.465Z,2.30
2018-09-22T23:29:47.628Z,2.67
2018-09-22T23:34:49.771Z,2.53
2018-09-22T23:39:51.915Z,2.67
2018-09-22T23:44:54.443Z,2.67
2018-09-22T23:49:56.563Z,2.43
2018-09-22T23:54:58.689Z,2.40
